Time;durP1;ratioP1;P1;durP2;ratioP2;P2;SDS_P1;SDS_P2;PMS_P1;PMS_P2;Temp;Humidity;BMP_temperature;BMP_pressure;BME280_temperature;BME280_humidity;BME280_pressure;Samples;Min_cycle;Max_cycle;Signal;HPM_P1;HPM_P2
2023/12/25 00:01:39;;;;;;;12.85;1.67;;;;;;;9.03;100.00;98894.66;5063334;28;20433;-82
2023/12/25 00:04:12;;;;;;;10.53;1.47;;;;;;;8.88;100.00;98898.59;5064081;28;20406;-79
2023/12/25 00:06:40;;;;;;;10.82;1.75;;;;;;;8.85;100.00;98893.78;5061312;28;20418;-79
2023/12/25 00:09:10;;;;;;;8.82;1.45;;;;;;;8.64;100.00;98878.03;5065046;28;20429;-82
2023/12/25 00:11:43;;;;;;;13.05;1.63;;;;;;;8.85;100.00;98894.59;5061870;28;20428;-79
2023/12/25 00:14:16;;;;;;;9.63;1.65;;;;;;;8.73;100.00;98902.50;5065182;28;20428;-80
2023/12/25 00:16:49;;;;;;;9.40;1.85;;;;;;;8.74;100.00;98889.75;5065502;28;20911;-79
2023/12/25 00:19:18;;;;;;;12.10;1.77;;;;;;;8.77;100.00;98889.13;5064041;28;20433;-79
2023/12/25 00:21:51;;;;;;;9.50;1.53;;;;;;;8.69;100.00;98890.69;5079792;28;20487;-80
2023/12/25 00:24:20;;;;;;;11.27;1.60;;;;;;;8.79;100.00;98893.13;5066719;28;20484;-79
2023/12/25 00:26:48;;;;;;;7.03;1.33;;;;;;;8.77;100.00;98886.41;5080601;28;20455;-79
2023/12/25 00:29:22;;;;;;;12.90;1.60;;;;;;;8.84;100.00;98875.94;5063221;28;20414;-79
2023/12/25 00:31:55;;;;;;;9.02;1.70;;;;;;;8.82;100.00;98870.81;5061395;28;20439;-79
2023/12/25 00:34:29;;;;;;;7.45;1.27;;;;;;;8.83;100.00;98879.75;5064274;28;20815;-80
2023/12/25 00:37:02;;;;;;;8.38;1.35;;;;;;;8.83;100.00;98849.91;5064751;28;20437;-79
2023/12/25 00:39:31;;;;;;;13.05;1.30;;;;;;;8.96;100.00;98878.84;5067772;28;20426;-80
2023/12/25 00:42:06;;;;;;;11.88;1.73;;;;;;;9.02;100.00;98877.59;5072145;28;20426;-79
2023/12/25 00:44:39;;;;;;;9.25;1.45;;;;;;;9.00;100.00;98876.28;5078863;28;20958;-79
2023/12/25 00:47:07;;;;;;;8.10;1.40;;;;;;;8.94;100.00;98872.91;5077988;28;20434;-79
2023/12/25 00:49:35;;;;;;;9.75;1.35;;;;;;;9.01;100.00;98883.31;5065033;28;20425;-79
2023/12/25 00:52:08;;;;;;;7.40;1.02;;;;;;;8.91;100.00;98889.00;5061267;28;20424;-79
2023/12/25 00:54:38;;;;;;;6.10;1.17;;;;;;;8.94;100.00;98881.06;5069864;28;20429;-82
2023/12/25 00:57:11;;;;;;;9.18;1.10;;;;;;;8.88;100.00;98897.78;5063617;28;21230;-80
2023/12/25 00:59:44;;;;;;;9.25;1.27;;;;;;;8.96;100.00;98886.16;5079978;28;20422;-80
2023/12/25 01:02:12;;;;;;;7.60;1.30;;;;;;;8.88;100.00;98879.63;5078728;28;20429;-79
2023/12/25 01:04:46;;;;;;;5.40;1.20;;;;;;;8.83;100.00;98883.25;5068115;28;20425;-80
2023/12/25 01:07:19;;;;;;;6.30;1.10;;;;;;;8.88;100.00;98897.78;5059643;28;20418;-79
2023/12/25 01:09:49;;;;;;;8.68;1.40;;;;;;;8.82;100.00;98891.69;5058663;28;20880;-81
2023/12/25 01:12:17;;;;;;;10.25;1.40;;;;;;;8.90;100.00;98874.66;5076406;28;20426;-78
2023/12/25 01:14:50;;;;;;;9.85;1.60;;;;;;;8.93;100.00;98886.81;5063093;28;20435;-78
2023/12/25 01:17:18;;;;;;;5.88;1.00;;;;;;;8.85;100.00;98889.16;5062089;28;20439;-81
2023/12/25 01:19:52;;;;;;;8.23;1.27;;;;;;;8.79;100.00;98884.97;5067585;28;20437;-79
2023/12/25 01:22:26;;;;;;;7.90;1.45;;;;;;;8.88;100.00;98873.38;5067626;28;20438;-79
2023/12/25 01:25:00;;;;;;;6.28;1.30;;;;;;;8.93;100.00;98911.22;5062332;28;20434;-78
2023/12/25 01:27:35;;;;;;;6.93;1.17;;;;;;;8.90;100.00;98901.78;5077192;28;20470;-79
2023/12/25 01:30:10;;;;;;;5.53;1.10;;;;;;;8.94;100.00;98908.19;5064310;28;20444;-79
2023/12/25 01:32:43;;;;;;;7.40;1.23;;;;;;;8.95;100.00;98906.25;5061805;28;21066;-79
2023/12/25 01:35:11;;;;;;;7.47;1.33;;;;;;;8.95;100.00;98909.81;5066377;28;20430;-78
2023/12/25 01:37:39;;;;;;;8.55;1.20;;;;;;;8.81;100.00;98912.59;5088362;28;20409;-79
2023/12/25 01:40:10;;;;;;;11.30;1.30;;;;;;;8.85;100.00;98888.34;5086635;28;20919;-78
2023/12/25 01:42:42;;;;;;;6.93;1.10;;;;;;;8.95;100.00;98917.13;5086042;28;20415;-78
2023/12/25 01:45:11;;;;;;;5.50;1.03;;;;;;;9.01;100.00;98903.09;5068171;28;20404;-78
2023/12/25 01:47:39;;;;;;;5.60;1.00;;;;;;;9.01;100.00;98915.88;5066080;28;20441;-79
2023/12/25 01:50:08;;;;;;;11.30;1.45;;;;;;;9.01;100.00;98913.97;5085632;28;20410;-81
2023/12/25 01:52:42;;;;;;;6.22;1.00;;;;;;;9.01;100.00;98921.31;5066882;28;20422;-79
2023/12/25 01:55:11;;;;;;;10.13;1.50;;;;;;;9.05;100.00;98926.94;5065730;28;20414;-79
2023/12/25 01:57:41;;;;;;;6.40;1.20;;;;;;;9.15;100.00;98929.34;5085450;28;20490;-79
2023/12/25 02:00:15;;;;;;;5.72;1.10;;;;;;;9.11;100.00;98921.03;5071560;28;20422;-80
2023/12/25 02:02:44;;;;;;;5.73;1.00;;;;;;;9.12;100.00;98935.41;5065656;28;20422;-78
2023/12/25 02:05:12;;;;;;;9.47;1.63;;;;;;;9.14;100.00;98934.00;5069919;28;21170;-80
2023/12/25 02:07:43;;;;;;;8.18;1.25;;;;;;;9.09;100.00;98941.47;5060490;28;20418;-80
2023/12/25 02:10:28;;;;;;;8.07;1.17;;;;;;;9.13;100.00;98934.31;5075825;28;20428;-78
2023/12/25 02:12:57;;;;;;;8.43;1.25;;;;;;;9.02;100.00;98941.91;5060193;28;20433;-79
2023/12/25 02:15:26;;;;;;;7.95;1.10;;;;;;;9.05;100.00;98927.72;5058589;28;20888;-80
2023/12/25 02:17:59;;;;;;;5.07;1.20;;;;;;;9.00;100.00;98934.09;5065642;28;20430;-78
2023/12/25 02:20:27;;;;;;;4.07;0.88;;;;;;;9.02;100.00;98940.00;5085298;28;20431;-79
2023/12/25 02:23:05;;;;;;;5.90;0.90;;;;;;;9.13;100.00;98942.44;5064601;28;20431;-79
2023/12/25 02:25:53;;;;;;;4.88;0.95;;;;;;;9.11;100.00;98934.59;5063457;28;20447;-79
2023/12/25 02:28:27;;;;;;;6.53;1.13;;;;;;;8.99;100.00;98951.47;5079733;28;20422;-78
2023/12/25 02:31:00;;;;;;;7.93;1.38;;;;;;;9.07;100.00;98940.97;5062128;28;20433;-81
2023/12/25 02:33:33;;;;;;;5.32;1.00;;;;;;;9.07;100.00;98940.97;5078603;28;20421;-80
2023/12/25 02:36:06;;;;;;;8.35;1.27;;;;;;;9.09;100.00;98933.34;5078246;28;20979;-79
2023/12/25 02:38:40;;;;;;;7.45;1.33;;;;;;;9.13;100.00;98950.59;5065466;28;20804;-78
2023/12/25 02:41:14;;;;;;;7.05;1.38;;;;;;;9.23;100.00;98954.94;5067091;28;20418;-79
2023/12/25 02:43:47;;;;;;;6.55;1.10;;;;;;;9.21;100.00;98955.25;5084690;28;20419;-80
2023/12/25 02:46:20;;;;;;;7.00;1.15;;;;;;;9.14;100.00;98942.13;5063727;28;20428;-78
2023/12/25 02:48:54;;;;;;;6.35;1.00;;;;;;;9.11;100.00;98950.09;5083790;28;20414;-79
2023/12/25 02:51:28;;;;;;;6.60;1.10;;;;;;;9.22;100.00;98961.47;5067402;28;20433;-81
2023/12/25 02:53:56;;;;;;;8.85;1.58;;;;;;;9.24;100.00;98956.50;5070197;28;20425;-80
2023/12/25 02:56:25;;;;;;;8.03;1.47;;;;;;;9.08;100.00;98970.50;5069608;28;20424;-80
2023/12/25 02:58:54;;;;;;;5.85;1.10;;;;;;;9.17;100.00;98952.34;5083977;28;20430;-79
2023/12/25 03:01:27;;;;;;;6.17;1.23;;;;;;;9.15;100.00;98951.84;5079590;28;20897;-79
2023/12/25 03:03:55;;;;;;;8.52;1.30;;;;;;;9.17;100.00;98952.34;5063913;28;20434;-78
2023/12/25 03:06:23;;;;;;;8.02;1.40;;;;;;;9.12;100.00;98960.63;5081137;28;20421;-82
2023/12/25 03:08:56;;;;;;;7.45;1.35;;;;;;;9.18;100.00;98972.97;5067127;28;20440;-80
2023/12/25 03:11:26;;;;;;;6.68;1.45;;;;;;;9.26;100.00;98960.53;5082326;28;20423;-78
2023/12/25 03:13:54;;;;;;;7.95;1.45;;;;;;;9.24;100.00;98951.91;5061286;28;20429;-79
2023/12/25 03:16:27;;;;;;;7.72;1.20;;;;;;;9.22;100.00;98964.97;5078490;28;20422;-79
2023/12/25 03:19:01;;;;;;;9.38;1.52;;;;;;;9.21;100.00;98963.41;5082347;28;20802;-79
2023/12/25 03:21:34;;;;;;;11.43;1.47;;;;;;;9.04;100.00;98958.66;5066315;28;20511;-78
2023/12/25 03:24:07;;;;;;;9.70;1.65;;;;;;;9.14;100.00;98968.44;5063656;28;20433;-79
2023/12/25 03:26:42;;;;;;;11.98;1.63;;;;;;;9.19;100.00;98962.91;5068810;28;20436;-81
2023/12/25 03:29:11;;;;;;;9.40;1.83;;;;;;;9.11;100.00;98958.22;5061133;28;20424;-78
2023/12/25 03:31:39;;;;;;;8.40;1.65;;;;;;;9.02;100.00;98958.19;5080533;28;20418;-78
2023/12/25 03:34:15;;;;;;;9.32;1.50;;;;;;;8.98;100.00;98984.34;5064536;28;21187;-78
2023/12/25 03:36:48;;;;;;;11.38;1.55;;;;;;;8.95;100.00;98958.63;5064316;28;20435;-79
2023/12/25 03:39:21;;;;;;;9.07;1.80;;;;;;;8.94;100.00;98961.66;5086457;28;20410;-78
2023/12/25 03:41:56;;;;;;;9.87;1.37;;;;;;;8.87;100.00;98959.38;5072875;28;20449;-79
2023/12/25 03:44:24;;;;;;;8.40;1.60;;;;;;;8.76;100.00;98963.47;5090305;28;20770;-79
2023/12/25 03:46:52;;;;;;;15.52;1.40;;;;;;;8.75;100.00;98964.56;5086447;28;20434;-79
2023/12/25 03:49:20;;;;;;;10.35;1.42;;;;;;;8.70;100.00;98967.41;5065147;28;20431;-81
2023/12/25 03:51:55;;;;;;;9.85;1.63;;;;;;;8.74;100.00;98960.25;5079536;28;20448;-81
2023/12/25 03:54:23;;;;;;;10.23;1.50;;;;;;;8.77;100.00;98967.78;5078786;28;20531;-81
2023/12/25 03:56:52;;;;;;;12.35;1.80;;;;;;;8.83;100.00;98988.25;5063372;28;20433;-78
2023/12/25 03:59:27;;;;;;;10.70;1.42;;;;;;;8.79;100.00;98971.78;5066864;28;20418;-79
2023/12/25 04:02:00;;;;;;;9.93;1.40;;;;;;;8.68;100.00;98965.00;5078840;28;20451;-80
2023/12/25 04:04:33;;;;;;;9.45;1.48;;;;;;;8.68;100.00;98965.81;5076455;28;20413;-79
2023/12/25 04:07:06;;;;;;;10.73;1.60;;;;;;;8.60;100.00;98969.25;5081683;28;20425;-78
2023/12/25 04:09:34;;;;;;;9.88;1.50;;;;;;;8.58;100.00;98974.19;5084013;28;20426;-77
2023/12/25 04:12:03;;;;;;;13.55;1.77;;;;;;;8.60;100.00;98976.59;5065693;28;20427;-79
2023/12/25 04:14:39;;;;;;;11.65;1.67;;;;;;;8.53;100.00;98963.47;5060150;28;21416;-81
2023/12/25 04:17:07;;;;;;;8.52;1.30;;;;;;;8.54;100.00;98977.84;5081966;28;20420;-78
2023/12/25 04:19:35;;;;;;;13.85;1.75;;;;;;;8.55;100.00;98982.13;5061506;28;20424;-79
2023/12/25 04:22:08;;;;;;;9.07;1.50;;;;;;;8.51;100.00;98985.47;5079976;28;20426;-81
2023/12/25 04:24:42;;;;;;;11.63;1.50;;;;;;;8.51;100.00;98979.25;5067650;28;20431;-78
2023/12/25 04:27:15;;;;;;;11.45;1.50;;;;;;;8.75;100.00;98999.84;5064156;28;20423;-80
2023/12/25 04:29:45;;;;;;;11.95;1.90;;;;;;;8.66;100.00;98976.16;5060848;28;20450;-79
2023/12/25 04:32:13;;;;;;;15.40;2.22;;;;;;;8.67;100.00;98996.75;5061208;28;20421;-78
2023/12/25 04:34:46;;;;;;;7.05;1.48;;;;;;;8.61;100.00;98999.91;5060542;28;20414;-78
2023/12/25 04:37:14;;;;;;;10.57;1.70;;;;;;;8.61;100.00;99000.69;5058417;28;21226;-80
2023/12/25 04:39:43;;;;;;;6.93;1.23;;;;;;;8.69;100.00;99001.88;5067525;28;20429;-80
2023/12/25 04:42:16;;;;;;;8.70;1.35;;;;;;;8.65;100.00;99017.16;5059004;28;20430;-79
2023/12/25 04:44:46;;;;;;;12.60;1.85;;;;;;;8.63;100.00;99012.03;5075458;28;20448;-79
2023/12/25 04:47:19;;;;;;;10.10;1.67;;;;;;;8.61;100.00;99016.97;5060895;28;20419;-79
2023/12/25 04:49:47;;;;;;;12.10;1.87;;;;;;;8.51;100.00;99022.63;5066034;28;20402;-78
2023/12/25 04:52:21;;;;;;;12.98;1.60;;;;;;;8.58;100.00;99009.44;5077527;28;20423;-78
2023/12/25 04:54:55;;;;;;;10.23;1.60;;;;;;;8.60;100.00;99011.84;5079963;28;20441;-78
2023/12/25 04:57:23;;;;;;;13.18;1.98;;;;;;;8.65;100.00;99022.59;5061723;28;20433;-78
2023/12/25 04:59:58;;;;;;;11.77;2.00;;;;;;;8.56;100.00;99022.53;5058769;28;20514;-79
2023/12/25 05:02:26;;;;;;;11.93;2.28;;;;;;;8.60;100.00;99026.19;5056492;28;20423;-79
2023/12/25 05:04:59;;;;;;;12.85;2.35;;;;;;;8.47;100.00;99027.84;5066702;28;20430;-78
2023/12/25 05:07:32;;;;;;;12.88;2.53;;;;;;;8.44;100.00;99025.75;5070980;28;20426;-78
2023/12/25 05:10:06;;;;;;;12.03;1.80;;;;;;;8.41;100.00;99039.09;5062893;28;20760;-79
2023/12/25 05:12:35;;;;;;;14.45;2.13;;;;;;;8.30;100.00;99027.66;5080539;28;20423;-79
2023/12/25 05:15:11;;;;;;;12.13;2.33;;;;;;;8.32;100.00;99018.13;5077029;28;20406;-78
2023/12/25 05:17:40;;;;;;;13.60;2.00;;;;;;;8.34;100.00;99032.19;5074540;28;20914;-78
2023/12/25 05:20:14;;;;;;;15.38;2.10;;;;;;;8.36;100.00;99045.44;5083418;28;20411;-79
2023/12/25 05:22:42;;;;;;;13.20;2.00;;;;;;;8.39;100.00;99038.59;5062190;28;20430;-79
2023/12/25 05:25:15;;;;;;;14.30;2.20;;;;;;;8.34;100.00;99047.63;5061243;28;20431;-78
2023/12/25 05:27:48;;;;;;;8.80;1.73;;;;;;;8.31;100.00;99049.06;5063010;28;20432;-78
2023/12/25 05:30:23;;;;;;;11.05;1.80;;;;;;;8.34;100.00;99072.84;5078918;28;20418;-78
2023/12/25 05:32:51;;;;;;;12.18;1.65;;;;;;;8.32;100.00;99041.72;5075797;28;20435;-79
2023/12/25 05:35:24;;;;;;;18.58;2.38;;;;;;;8.27;100.00;99058.91;5078128;28;20422;-78
2023/12/25 05:37:57;;;;;;;16.33;2.00;;;;;;;8.23;100.00;99057.91;5074779;28;20421;-78
2023/12/25 05:40:30;;;;;;;14.68;2.17;;;;;;;8.31;100.00;99068.03;5077279;28;22086;-78
2023/12/25 05:43:04;;;;;;;14.70;1.98;;;;;;;8.17;100.00;99069.97;5082532;28;20422;-78
2023/12/25 05:45:38;;;;;;;14.52;1.98;;;;;;;8.08;100.00;99083.44;5076842;28;20423;-79
2023/12/25 05:48:12;;;;;;;10.40;1.45;;;;;;;7.93;100.00;99089.16;5075309;28;20865;-79
2023/12/25 05:50:40;;;;;;;12.23;1.70;;;;;;;7.86;100.00;99096.84;5061186;28;20514;-79
2023/12/25 05:53:13;;;;;;;15.73;1.83;;;;;;;7.77;100.00;99099.47;5076537;28;20426;-79
2023/12/25 05:55:46;;;;;;;12.15;2.00;;;;;;;7.61;100.00;99094.34;5064575;28;20429;-78
2023/12/25 05:58:20;;;;;;;15.87;1.90;;;;;;;7.62;100.00;99098.66;5060659;28;20436;-79
2023/12/25 06:00:54;;;;;;;14.27;1.92;;;;;;;7.54;100.00;99112.06;5073919;28;20427;-80
2023/12/25 06:03:27;;;;;;;18.30;2.13;;;;;;;7.46;100.00;99105.47;5059101;28;20433;-80
2023/12/25 06:05:56;;;;;;;13.70;2.35;;;;;;;7.48;100.00;99095.94;5067633;28;20422;-79
2023/12/25 06:08:29;;;;;;;11.32;2.03;;;;;;;7.58;100.00;99118.50;5065681;28;20417;-78
2023/12/25 06:10:58;;;;;;;19.40;2.88;;;;;;;7.60;100.00;99113.59;5064677;28;21166;-78
2023/12/25 06:13:26;;;;;;;15.23;2.15;;;;;;;7.73;100.00;99122.84;5078813;28;20414;-79
2023/12/25 06:16:01;;;;;;;15.88;2.03;;;;;;;7.77;100.00;99115.72;5078309;28;20438;-79
2023/12/25 06:18:29;;;;;;;15.98;2.58;;;;;;;7.81;100.00;99127.56;5062417;28;20930;-79
2023/12/25 06:20:57;;;;;;;14.85;2.53;;;;;;;7.92;100.00;99117.34;5057920;28;20424;-79
2023/12/25 06:23:30;;;;;;;19.35;2.45;;;;;;;8.02;100.00;99116.34;5067249;28;20441;-79
2023/12/25 06:26:04;;;;;;;18.40;2.53;;;;;;;7.97;100.00;99109.13;5063735;28;20423;-79
2023/12/25 06:28:32;;;;;;;14.15;2.25;;;;;;;7.92;100.00;99137.09;5079978;28;20421;-80
2023/12/25 06:31:01;;;;;;;14.52;2.05;;;;;;;7.92;100.00;99126.25;5058188;28;20433;-81
2023/12/25 06:33:29;;;;;;;16.42;2.13;;;;;;;7.95;100.00;99133.00;5067470;28;20817;-79
2023/12/25 06:36:03;;;;;;;17.73;2.17;;;;;;;7.88;100.00;99132.59;5055800;28;20449;-80
2023/12/25 06:38:31;;;;;;;18.00;2.50;;;;;;;7.91;100.00;99135.50;5057223;28;20425;-78
2023/12/25 06:41:04;;;;;;;16.92;2.20;;;;;;;7.95;100.00;99151.94;5063083;28;20421;-79
2023/12/25 06:43:33;;;;;;;14.85;2.17;;;;;;;7.94;100.00;99145.75;5082634;28;20426;-79
2023/12/25 06:46:07;;;;;;;16.15;2.42;;;;;;;7.87;100.00;99155.34;5080631;28;20426;-78
2023/12/25 06:48:40;;;;;;;19.90;2.25;;;;;;;7.77;100.00;99161.75;5061938;28;20433;-80
2023/12/25 06:51:14;;;;;;;17.70;2.10;;;;;;;7.84;100.00;99164.88;5076078;28;20448;-78
2023/12/25 06:53:42;;;;;;;15.30;2.33;;;;;;;7.84;100.00;99173.00;5060094;28;20434;-78
2023/12/25 06:56:15;;;;;;;12.20;1.85;;;;;;;7.79;100.00;99154.16;5075280;28;20438;-80
2023/12/25 06:58:43;;;;;;;15.35;2.22;;;;;;;7.80;100.00;99174.69;5066583;28;20445;-80
2023/12/25 07:01:23;;;;;;;18.67;2.28;;;;;;;7.72;100.00;99181.63;5081495;28;20421;-86
2023/12/25 07:03:51;;;;;;;17.08;2.60;;;;;;;7.73;100.00;99185.13;5076716;28;20419;-84
2023/12/25 07:06:19;;;;;;;17.67;2.30;;;;;;;7.69;100.00;99194.94;5061472;28;20421;-84
2023/12/25 07:08:53;;;;;;;14.18;2.33;;;;;;;7.64;100.00;99193.91;5074439;28;20423;-84
2023/12/25 07:11:21;;;;;;;14.30;2.30;;;;;;;7.57;100.00;99204.34;5060774;28;20425;-79
2023/12/25 07:13:57;;;;;;;18.85;2.65;;;;;;;7.56;100.00;99202.72;5054057;28;20436;-77
2023/12/25 07:16:31;;;;;;;16.58;2.83;;;;;;;7.53;100.00;99219.56;5050727;28;20483;-78
2023/12/25 07:19:05;;;;;;;20.42;3.05;;;;;;;7.51;100.00;99216.31;5071809;28;20428;-78
2023/12/25 07:21:33;;;;;;;18.45;2.22;;;;;;;7.41;100.00;99225.41;5072244;28;20417;-76
2023/12/25 07:24:07;;;;;;;18.60;2.75;;;;;;;7.40;100.00;99220.31;5051470;28;20459;-78
2023/12/25 07:26:40;;;;;;;19.48;2.88;;;;;;;7.41;100.00;99221.91;5072758;28;21090;-78
2023/12/25 07:29:13;;;;;;;30.42;3.10;;;;;;;7.47;100.00;99229.66;5076127;28;20430;-76
2023/12/25 07:31:43;;;;;;;20.35;3.08;;;;;;;7.45;100.00;99234.56;5059782;28;20426;-84
2023/12/25 07:34:16;;;;;;;18.30;2.92;;;;;;;7.38;100.00;99239.53;5078342;28;20423;-84
2023/12/25 07:36:50;;;;;;;19.23;2.70;;;;;;;7.23;100.00;99243.28;5062047;28;20480;-85
2023/12/25 07:39:23;;;;;;;23.83;2.47;;;;;;;7.30;100.00;99265.34;5075923;28;20418;-78
2023/12/25 07:41:56;;;;;;;21.23;2.93;;;;;;;7.28;100.00;99255.94;5074219;28;20917;-78
2023/12/25 07:44:27;;;;;;;18.48;2.45;;;;;;;7.30;100.00;99262.66;5063076;28;20426;-77
2023/12/25 07:47:02;;;;;;;17.70;2.33;;;;;;;7.23;100.00;99264.91;5080985;28;21022;-78
2023/12/25 07:49:35;;;;;;;19.10;3.07;;;;;;;7.34;100.00;99278.31;5064105;28;20537;-78
2023/12/25 07:52:04;;;;;;;24.45;2.90;;;;;;;7.37;100.00;99272.31;5069300;28;20889;-77
2023/12/25 07:54:38;;;;;;;18.52;2.35;;;;;;;7.27;100.00;99292.22;5067804;28;20901;-79
2023/12/25 07:57:06;;;;;;;20.05;2.80;;;;;;;7.25;100.00;99310.63;5067859;28;20434;-78
2023/12/25 07:59:39;;;;;;;18.95;2.72;;;;;;;7.17;100.00;99286.94;5084114;28;20434;-79
2023/12/25 08:02:14;;;;;;;19.65;2.50;;;;;;;7.09;100.00;99289.19;5084883;28;20418;-77
2023/12/25 08:04:47;;;;;;;24.45;3.28;;;;;;;6.98;100.00;99296.63;5067093;28;20433;-78
2023/12/25 08:07:16;;;;;;;19.30;2.45;;;;;;;7.01;100.00;99306.06;5073463;28;20422;-78
2023/12/25 08:09:49;;;;;;;20.85;2.40;;;;;;;7.09;100.00;99316.25;5064453;28;20758;-77
2023/12/25 08:12:22;;;;;;;15.30;2.70;;;;;;;6.92;100.00;99310.53;5081703;28;20946;-77
2023/12/25 08:14:55;;;;;;;17.00;2.22;;;;;;;6.92;100.00;99332.16;5068037;28;20427;-78
2023/12/25 08:17:30;;;;;;;17.38;2.80;;;;;;;6.91;100.00;99331.34;5084656;28;20422;-77
2023/12/25 08:19:58;;;;;;;17.02;2.90;;;;;;;6.97;100.00;99329.38;5063654;28;20418;-79
2023/12/25 08:22:26;;;;;;;16.85;2.10;;;;;;;6.88;100.00;99339.25;5087052;28;20406;-79
2023/12/25 08:24:54;;;;;;;22.13;2.97;;;;;;;6.85;100.00;99335.22;5086598;28;20417;-77
2023/12/25 08:27:28;;;;;;;21.73;2.63;;;;;;;6.90;100.00;99350.56;5082576;28;20428;-78
2023/12/25 08:30:01;;;;;;;21.45;3.15;;;;;;;6.91;100.00;99344.06;5066076;28;20444;-77
2023/12/25 08:32:31;;;;;;;22.67;3.00;;;;;;;6.88;100.00;99353.56;5069263;28;20423;-77
2023/12/25 08:35:05;;;;;;;21.90;3.00;;;;;;;6.87;100.00;99362.75;5067357;28;20422;-77
2023/12/25 08:37:33;;;;;;;20.13;3.03;;;;;;;6.92;100.00;99383.56;5066863;28;20905;-77
2023/12/25 08:40:03;;;;;;;22.00;3.03;;;;;;;6.96;100.00;99369.16;5067543;28;20413;-78
2023/12/25 08:42:37;;;;;;;20.73;2.60;;;;;;;6.94;100.00;99378.66;5084154;28;20418;-78
2023/12/25 08:45:07;;;;;;;19.05;2.80;;;;;;;6.98;100.00;99383.19;5085667;28;20421;-78
2023/12/25 08:47:42;;;;;;;26.05;3.58;;;;;;;6.97;100.00;99394.28;5063078;28;20431;-78
2023/12/25 08:50:10;;;;;;;20.30;3.08;;;;;;;6.98;100.00;99394.00;5062670;28;20429;-79
2023/12/25 08:52:43;;;;;;;22.35;2.83;;;;;;;6.95;100.00;99381.06;5079724;28;20421;-78
2023/12/25 08:55:17;;;;;;;19.35;2.80;;;;;;;6.92;100.00;99400.56;5074498;28;20426;-78
2023/12/25 08:57:50;;;;;;;27.20;3.13;;;;;;;6.86;100.00;99395.50;5080378;28;20433;-77
2023/12/25 09:00:24;;;;;;;18.87;2.47;;;;;;;6.78;100.00;99397.75;5075173;28;21135;-78
2023/12/25 09:02:54;;;;;;;22.83;3.08;;;;;;;6.81;100.00;99401.78;5072535;28;20933;-80
2023/12/25 09:05:28;;;;;;;24.17;3.00;;;;;;;6.86;100.00;99412.53;5062295;28;21389;-86
2023/12/25 09:07:56;;;;;;;20.13;2.35;;;;;;;6.88;100.00;99423.06;5076480;28;20415;-78
2023/12/25 09:10:29;;;;;;;24.23;3.38;;;;;;;6.87;100.00;99419.53;5056300;28;20430;-76
2023/12/25 09:13:03;;;;;;;21.33;2.90;;;;;;;6.86;100.00;99446.88;5075829;28;20420;-76
2023/12/25 09:15:32;;;;;;;21.90;2.92;;;;;;;6.93;100.00;99415.72;5054109;28;20444;-78
2023/12/25 09:18:06;;;;;;;19.90;2.67;;;;;;;6.93;100.00;99420.31;5056255;28;20434;-77
2023/12/25 09:20:35;;;;;;;25.08;3.38;;;;;;;7.05;100.00;99431.53;5075160;28;20425;-79
2023/12/25 09:23:08;;;;;;;24.25;3.00;;;;;;;7.06;100.00;99421.53;5071447;28;20539;-77
2023/12/25 09:25:41;;;;;;;25.63;3.50;;;;;;;7.22;100.00;99428.38;5072315;28;20425;-78
2023/12/25 09:28:15;;;;;;;24.45;2.78;;;;;;;7.19;100.00;99433.56;5073347;28;20433;-77
2023/12/25 09:30:48;;;;;;;24.10;3.05;;;;;;;7.08;100.00;99414.72;5074127;28;20430;-78
2023/12/25 09:33:28;;;;;;;24.25;3.42;;;;;;;7.08;100.00;99433.66;5054814;28;20917;-80
2023/12/25 09:36:17;;;;;;;22.27;3.00;;;;;;;7.00;100.00;99431.56;5060557;28;20435;-78
2023/12/25 09:38:50;;;;;;;24.40;3.30;;;;;;;7.05;100.00;99430.75;5050772;28;21055;-77
2023/12/25 09:41:21;;;;;;;19.05;2.53;;;;;;;7.21;100.00;99444.88;5052188;28;20813;-79
2023/12/25 09:43:52;;;;;;;22.88;3.00;;;;;;;7.08;100.00;99441.78;5055854;28;20431;-79
2023/12/25 09:46:28;;;;;;;18.63;3.42;;;;;;;7.12;100.00;99434.69;5056363;28;20423;-76
2023/12/25 09:48:59;;;;;;;20.60;3.28;;;;;;;7.06;100.00;99449.38;5073377;28;20778;-77
2023/12/25 09:51:28;;;;;;;16.85;2.33;;;;;;;7.04;100.00;99454.25;5056740;28;20420;-77
2023/12/25 09:54:02;;;;;;;22.25;2.97;;;;;;;7.15;100.00;99458.50;5054002;28;20425;-77
2023/12/25 09:56:37;;;;;;;21.27;2.97;;;;;;;7.14;100.00;99466.91;5072115;28;20425;-76
2023/12/25 09:59:12;;;;;;;21.23;2.60;;;;;;;7.18;100.00;99457.13;5071408;28;20438;-77
2023/12/25 10:01:46;;;;;;;19.65;2.42;;;;;;;7.21;100.00;99463.81;5075740;28;20427;-77
2023/12/25 10:04:21;;;;;;;24.13;3.35;;;;;;;7.18;100.00;99470.66;5053338;28;20425;-82
2023/12/25 10:06:49;;;;;;;21.20;2.85;;;;;;;7.17;100.00;99470.91;5058213;28;20902;-77
2023/12/25 10:09:22;;;;;;;23.75;2.90;;;;;;;7.17;100.00;99470.91;5059819;28;20425;-78
2023/12/25 10:11:55;;;;;;;24.55;3.67;;;;;;;7.16;100.00;99470.09;5075080;28;20420;-78
2023/12/25 10:14:29;;;;;;;23.77;3.00;;;;;;;7.19;100.00;99476.84;5004160;28;20959;-76
2023/12/25 10:17:02;;;;;;;24.05;3.30;;;;;;;7.26;100.00;99464.56;5046114;28;20430;-78
2023/12/25 10:19:49;;;;;;;21.33;2.85;;;;;;;7.25;100.00;99479.22;5058428;28;20436;-79
2023/12/25 10:22:29;;;;;;;21.95;3.08;;;;;;;7.22;100.00;99478.97;5036333;28;21345;-76
2023/12/25 10:25:07;;;;;;;18.45;3.05;;;;;;;7.11;100.00;99497.22;5051762;28;20414;-79
2023/12/25 10:27:36;;;;;;;24.00;3.35;;;;;;;7.03;100.00;99508.66;5057395;28;20504;-79
2023/12/25 10:30:17;;;;;;;20.90;2.90;;;;;;;6.98;100.00;99491.38;5052278;28;20431;-78
2023/12/25 10:32:46;;;;;;;25.02;3.17;;;;;;;7.00;100.00;99496.50;5037523;28;20445;-79
2023/12/25 10:35:22;;;;;;;20.77;3.13;;;;;;;7.10;100.00;99495.63;5050960;28;20993;-77
2023/12/25 10:37:50;;;;;;;21.48;2.63;;;;;;;7.01;100.00;99490.00;5055294;28;20456;-79
2023/12/25 10:40:26;;;;;;;21.60;2.85;;;;;;;7.05;100.00;99490.25;5042418;28;20421;-79
2023/12/25 10:42:56;;;;;;;24.58;3.28;;;;;;;7.06;100.00;99489.16;5061638;28;20427;-78
2023/12/25 10:45:30;;;;;;;22.40;3.17;;;;;;;7.09;100.00;99505.63;5043751;28;21616;-79
2023/12/25 10:48:05;;;;;;;18.90;2.58;;;;;;;7.14;100.00;99477.72;5066066;28;20421;-79
2023/12/25 10:50:42;;;;;;;24.88;3.17;;;;;;;7.12;100.00;99504.25;5042702;28;20473;-78
2023/12/25 10:53:15;;;;;;;22.77;2.78;;;;;;;7.09;100.00;99510.22;5059123;28;20432;-76
2023/12/25 10:55:50;;;;;;;24.85;3.35;;;;;;;7.11;100.00;99495.34;5062676;28;20426;-79
2023/12/25 10:58:19;;;;;;;27.53;3.30;;;;;;;7.12;100.00;99488.00;5062010;28;20409;-79
2023/12/25 11:00:50;;;;;;;25.90;3.53;;;;;;;7.06;100.00;99495.38;5042259;28;21723;-80
2023/12/25 11:03:19;;;;;;;19.35;2.83;;;;;;;7.02;100.00;99494.31;5068553;28;20436;-78
2023/12/25 11:05:49;;;;;;;19.55;2.92;;;;;;;7.07;100.00;99507.00;5061112;28;21317;-78
2023/12/25 11:08:23;;;;;;;17.67;2.63;;;;;;;7.18;100.00;99511.22;5047976;28;20422;-79
2023/12/25 11:10:57;;;;;;;27.37;3.10;;;;;;;7.08;100.00;99497.78;5038093;28;20436;-78
2023/12/25 11:13:26;;;;;;;27.25;3.03;;;;;;;7.04;100.00;99505.66;5036759;28;20437;-77
2023/12/25 11:15:59;;;;;;;21.83;2.85;;;;;;;7.05;100.00;99507.28;5060181;28;21895;-78
2023/12/25 11:18:35;;;;;;;22.25;3.20;;;;;;;7.01;100.00;99494.63;5048379;28;20430;-79
2023/12/25 11:21:07;;;;;;;16.92;2.78;;;;;;;7.05;100.00;99493.75;5060622;28;20425;-79
2023/12/25 11:23:36;;;;;;;23.30;2.75;;;;;;;7.06;100.00;99510.81;5047996;28;20452;-77
2023/12/25 11:26:12;;;;;;;22.92;3.30;;;;;;;7.12;100.00;99509.66;5060976;28;20436;-77
2023/12/25 11:28:56;;;;;;;17.67;2.33;;;;;;;7.07;100.00;99498.88;5042519;28;21144;-79
2023/12/25 11:31:27;;;;;;;18.88;2.50;;;;;;;7.07;100.00;99498.88;5060940;28;20992;-78
2023/12/25 11:34:18;;;;;;;22.42;2.78;;;;;;;7.11;100.00;99500.75;5071121;28;21070;-77
2023/12/25 11:36:56;;;;;;;17.15;3.20;;;;;;;7.04;100.00;99499.44;5047395;28;20452;-76
2023/12/25 11:39:31;;;;;;;16.20;2.50;;;;;;;7.10;100.00;99507.25;5047457;28;20422;-78
2023/12/25 11:42:00;;;;;;;17.55;2.38;;;;;;;7.05;100.00;99501.06;5060344;28;20422;-79
2023/12/25 11:44:34;;;;;;;17.60;2.80;;;;;;;7.13;100.00;99512.06;5061674;28;21069;-78
2023/12/25 11:47:04;;;;;;;21.65;3.00;;;;;;;7.22;100.00;99506.03;5048544;28;21969;-78
2023/12/25 11:49:39;;;;;;;18.58;2.33;;;;;;;7.15;100.00;99509.91;5066751;28;20422;-77